sensor_id;sensor_type;location;lat;lon;timestamp;temperature;humidity
4107;DHT22;21906;50.812;7.132;2023-04-03T00:01:35;6.90;61.40
4107;DHT22;21906;50.812;7.132;2023-04-03T00:04:04;7.00;61.40
4107;DHT22;21906;50.812;7.132;2023-04-03T00:06:30;6.90;60.60
4107;DHT22;21906;50.812;7.132;2023-04-03T00:08:56;6.90;60.50
4107;DHT22;21906;50.812;7.132;2023-04-03T00:11:22;6.80;60.20
4107;DHT22;21906;50.812;7.132;2023-04-03T00:13:47;6.90;59.80
4107;DHT22;21906;50.812;7.132;2023-04-03T00:16:13;6.80;59.60
4107;DHT22;21906;50.812;7.132;2023-04-03T00:18:39;6.80;60.00
4107;DHT22;21906;50.812;7.132;2023-04-03T00:21:06;6.90;59.90
4107;DHT22;21906;50.812;7.132;2023-04-03T00:23:32;6.90;60.00
4107;DHT22;21906;50.812;7.132;2023-04-03T00:25:58;6.90;59.70
4107;DHT22;21906;50.812;7.132;2023-04-03T00:28:23;7.00;60.00
4107;DHT22;21906;50.812;7.132;2023-04-03T00:30:49;6.90;60.10
4107;DHT22;21906;50.812;7.132;2023-04-03T00:33:15;6.70;60.70
4107;DHT22;21906;50.812;7.132;2023-04-03T00:35:41;6.80;60.70
4107;DHT22;21906;50.812;7.132;2023-04-03T00:38:07;6.90;60.30
4107;DHT22;21906;50.812;7.132;2023-04-03T00:40:39;6.90;60.00
4107;DHT22;21906;50.812;7.132;2023-04-03T00:43:22;6.90;59.90
4107;DHT22;21906;50.812;7.132;2023-04-03T00:45:53;6.90;60.30
4107;DHT22;21906;50.812;7.132;2023-04-03T00:48:24;6.90;60.50
4107;DHT22;21906;50.812;7.132;2023-04-03T00:50:51;6.90;60.40
4107;DHT22;21906;50.812;7.132;2023-04-03T00:53:25;6.90;60.50
4107;DHT22;21906;50.812;7.132;2023-04-03T00:55:51;6.90;60.80
4107;DHT22;21906;50.812;7.132;2023-04-03T00:58:23;6.70;60.20
4107;DHT22;21906;50.812;7.132;2023-04-03T01:00:54;6.80;60.00
4107;DHT22;21906;50.812;7.132;2023-04-03T01:03:23;6.80;60.40
4107;DHT22;21906;50.812;7.132;2023-04-03T01:05:49;6.80;60.40
4107;DHT22;21906;50.812;7.132;2023-04-03T01:08:15;6.70;60.50
4107;DHT22;21906;50.812;7.132;2023-04-03T01:10:41;6.70;60.40
4107;DHT22;21906;50.812;7.132;2023-04-03T01:13:27;6.70;60.70
4107;DHT22;21906;50.812;7.132;2023-04-03T01:15:53;6.70;60.50
4107;DHT22;21906;50.812;7.132;2023-04-03T01:18:20;6.80;61.10
4107;DHT22;21906;50.812;7.132;2023-04-03T01:21:02;6.80;61.30
4107;DHT22;21906;50.812;7.132;2023-04-03T01:26:02;6.90;61.90
4107;DHT22;21906;50.812;7.132;2023-04-03T01:28:34;6.90;61.70
4107;DHT22;21906;50.812;7.132;2023-04-03T01:33:28;6.90;62.10
4107;DHT22;21906;50.812;7.132;2023-04-03T01:35:54;6.90;62.30
4107;DHT22;21906;50.812;7.132;2023-04-03T01:38:20;6.80;62.40
4107;DHT22;21906;50.812;7.132;2023-04-03T01:40:46;6.70;62.50
4107;DHT22;21906;50.812;7.132;2023-04-03T01:43:11;6.60;62.60
4107;DHT22;21906;50.812;7.132;2023-04-03T01:45:37;6.60;63.00
4107;DHT22;21906;50.812;7.132;2023-04-03T01:48:03;6.60;63.20
4107;DHT22;21906;50.812;7.132;2023-04-03T01:50:29;6.50;63.20
4107;DHT22;21906;50.812;7.132;2023-04-03T01:52:55;6.50;63.40
4107;DHT22;21906;50.812;7.132;2023-04-03T01:55:21;6.50;63.40
4107;DHT22;21906;50.812;7.132;2023-04-03T01:57:46;6.40;63.70
4107;DHT22;21906;50.812;7.132;2023-04-03T02:00:13;6.40;63.90
4107;DHT22;21906;50.812;7.132;2023-04-03T02:02:39;6.30;63.80
4107;DHT22;21906;50.812;7.132;2023-04-03T02:05:05;6.20;63.70
4107;DHT22;21906;50.812;7.132;2023-04-03T02:07:31;6.20;63.90
4107;DHT22;21906;50.812;7.132;2023-04-03T02:09:56;6.20;63.50
4107;DHT22;21906;50.812;7.132;2023-04-03T02:12:22;6.20;63.40
4107;DHT22;21906;50.812;7.132;2023-04-03T02:14:48;6.10;63.50
4107;DHT22;21906;50.812;7.132;2023-04-03T02:17:13;6.00;63.10
4107;DHT22;21906;50.812;7.132;2023-04-03T02:19:39;6.10;62.70
4107;DHT22;21906;50.812;7.132;2023-04-03T02:22:05;6.00;62.50
4107;DHT22;21906;50.812;7.132;2023-04-03T02:24:32;6.00;62.40
4107;DHT22;21906;50.812;7.132;2023-04-03T02:26:58;6.00;62.20
4107;DHT22;21906;50.812;7.132;2023-04-03T02:29:24;6.00;62.00
4107;DHT22;21906;50.812;7.132;2023-04-03T02:31:50;6.00;62.30
4107;DHT22;21906;50.812;7.132;2023-04-03T02:34:16;6.00;62.80
4107;DHT22;21906;50.812;7.132;2023-04-03T02:36:41;6.10;63.10
4107;DHT22;21906;50.812;7.132;2023-04-03T02:39:07;6.00;63.30
4107;DHT22;21906;50.812;7.132;2023-04-03T02:41:33;6.00;63.80
4107;DHT22;21906;50.812;7.132;2023-04-03T02:44:05;6.00;64.20
4107;DHT22;21906;50.812;7.132;2023-04-03T02:46:31;6.00;64.10
4107;DHT22;21906;50.812;7.132;2023-04-03T02:48:57;6.00;64.20
4107;DHT22;21906;50.812;7.132;2023-04-03T02:51:23;5.90;64.50
4107;DHT22;21906;50.812;7.132;2023-04-03T02:53:49;5.90;64.60
4107;DHT22;21906;50.812;7.132;2023-04-03T02:56:16;5.90;64.70
4107;DHT22;21906;50.812;7.132;2023-04-03T02:58:44;5.90;64.70
4107;DHT22;21906;50.812;7.132;2023-04-03T03:01:10;5.80;64.80
4107;DHT22;21906;50.812;7.132;2023-04-03T03:03:36;5.80;64.70
4107;DHT22;21906;50.812;7.132;2023-04-03T03:06:10;5.70;64.70
4107;DHT22;21906;50.812;7.132;2023-04-03T03:08:36;5.70;64.30
4107;DHT22;21906;50.812;7.132;2023-04-03T03:11:03;5.60;63.80
4107;DHT22;21906;50.812;7.132;2023-04-03T03:13:29;5.60;63.70
4107;DHT22;21906;50.812;7.132;2023-04-03T03:15:54;5.50;63.90
4107;DHT22;21906;50.812;7.132;2023-04-03T03:18:20;5.50;64.10
4107;DHT22;21906;50.812;7.132;2023-04-03T03:20:46;5.40;63.90
4107;DHT22;21906;50.812;7.132;2023-04-03T03:23:12;5.40;63.90
4107;DHT22;21906;50.812;7.132;2023-04-03T03:25:41;5.50;63.80
4107;DHT22;21906;50.812;7.132;2023-04-03T03:28:07;5.40;64.00
4107;DHT22;21906;50.812;7.132;2023-04-03T03:30:33;5.40;63.30
4107;DHT22;21906;50.812;7.132;2023-04-03T03:32:59;5.30;63.50
4107;DHT22;21906;50.812;7.132;2023-04-03T03:35:25;5.30;63.60
4107;DHT22;21906;50.812;7.132;2023-04-03T03:37:51;5.30;63.80
4107;DHT22;21906;50.812;7.132;2023-04-03T03:40:17;5.30;63.30
4107;DHT22;21906;50.812;7.132;2023-04-03T03:42:42;5.30;62.80
4107;DHT22;21906;50.812;7.132;2023-04-03T03:45:08;5.20;62.80
4107;DHT22;21906;50.812;7.132;2023-04-03T03:47:34;5.20;62.30
4107;DHT22;21906;50.812;7.132;2023-04-03T03:50:01;5.20;62.60
4107;DHT22;21906;50.812;7.132;2023-04-03T03:52:26;5.20;62.40
4107;DHT22;21906;50.812;7.132;2023-04-03T03:54:52;5.10;62.90
4107;DHT22;21906;50.812;7.132;2023-04-03T03:57:18;5.10;62.80
4107;DHT22;21906;50.812;7.132;2023-04-03T03:59:43;5.20;62.60
4107;DHT22;21906;50.812;7.132;2023-04-03T04:02:10;5.00;62.50
4107;DHT22;21906;50.812;7.132;2023-04-03T04:04:37;4.90;63.20
4107;DHT22;21906;50.812;7.132;2023-04-03T04:07:03;4.80;63.10
4107;DHT22;21906;50.812;7.132;2023-04-03T04:09:29;4.80;63.40
4107;DHT22;21906;50.812;7.132;2023-04-03T04:11:55;4.90;63.20
4107;DHT22;21906;50.812;7.132;2023-04-03T04:14:20;4.80;63.30
4107;DHT22;21906;50.812;7.132;2023-04-03T04:16:47;4.80;63.30
4107;DHT22;21906;50.812;7.132;2023-04-03T04:19:13;4.80;63.20
4107;DHT22;21906;50.812;7.132;2023-04-03T04:21:38;4.90;63.20
4107;DHT22;21906;50.812;7.132;2023-04-03T04:24:05;4.90;63.10
4107;DHT22;21906;50.812;7.132;2023-04-03T04:26:31;4.90;63.10
4107;DHT22;21906;50.812;7.132;2023-04-03T04:28:56;4.90;63.30
4107;DHT22;21906;50.812;7.132;2023-04-03T04:31:22;4.80;63.20
4107;DHT22;21906;50.812;7.132;2023-04-03T04:33:48;4.70;63.20
4107;DHT22;21906;50.812;7.132;2023-04-03T04:36:13;4.60;63.50
4107;DHT22;21906;50.812;7.132;2023-04-03T04:38:40;4.40;64.20
4107;DHT22;21906;50.812;7.132;2023-04-03T04:41:06;4.40;64.50
4107;DHT22;21906;50.812;7.132;2023-04-03T04:43:32;4.40;64.50
4107;DHT22;21906;50.812;7.132;2023-04-03T04:46:09;4.20;64.80
4107;DHT22;21906;50.812;7.132;2023-04-03T04:48:37;4.00;65.40
4107;DHT22;21906;50.812;7.132;2023-04-03T04:51:03;4.00;65.90
4107;DHT22;21906;50.812;7.132;2023-04-03T04:53:29;4.20;65.70
4107;DHT22;21906;50.812;7.132;2023-04-03T04:55:55;4.30;65.30
4107;DHT22;21906;50.812;7.132;2023-04-03T04:58:21;4.20;65.20
4107;DHT22;21906;50.812;7.132;2023-04-03T05:00:46;4.20;65.50
4107;DHT22;21906;50.812;7.132;2023-04-03T05:03:12;4.00;65.70
4107;DHT22;21906;50.812;7.132;2023-04-03T05:05:38;4.00;66.00
4107;DHT22;21906;50.812;7.132;2023-04-03T05:08:05;4.00;65.80
4107;DHT22;21906;50.812;7.132;2023-04-03T05:10:31;3.90;66.10
4107;DHT22;21906;50.812;7.132;2023-04-03T05:12:57;4.00;66.10
4107;DHT22;21906;50.812;7.132;2023-04-03T05:15:23;4.20;65.60
4107;DHT22;21906;50.812;7.132;2023-04-03T05:17:49;4.20;65.30
4107;DHT22;21906;50.812;7.132;2023-04-03T05:20:15;4.10;65.80
4107;DHT22;21906;50.812;7.132;2023-04-03T05:22:41;4.10;66.00
4107;DHT22;21906;50.812;7.132;2023-04-03T05:25:07;4.00;65.70
4107;DHT22;21906;50.812;7.132;2023-04-03T05:27:33;3.90;66.20
4107;DHT22;21906;50.812;7.132;2023-04-03T05:29:58;4.00;66.10
4107;DHT22;21906;50.812;7.132;2023-04-03T05:32:25;3.90;66.30
4107;DHT22;21906;50.812;7.132;2023-04-03T05:34:53;4.00;66.00
4107;DHT22;21906;50.812;7.132;2023-04-03T05:37:18;3.90;66.00
4107;DHT22;21906;50.812;7.132;2023-04-03T05:39:44;4.10;65.80
4107;DHT22;21906;50.812;7.132;2023-04-03T05:42:10;4.20;65.30
4107;DHT22;21906;50.812;7.132;2023-04-03T05:44:37;4.30;65.20
4107;DHT22;21906;50.812;7.132;2023-04-03T05:47:03;4.40;64.70
4107;DHT22;21906;50.812;7.132;2023-04-03T05:49:28;4.40;64.80
4107;DHT22;21906;50.812;7.132;2023-04-03T05:51:57;4.30;64.90
4107;DHT22;21906;50.812;7.132;2023-04-03T05:54:27;4.40;64.90
4107;DHT22;21906;50.812;7.132;2023-04-03T05:56:53;4.40;64.60
4107;DHT22;21906;50.812;7.132;2023-04-03T05:59:19;4.40;64.70
4107;DHT22;21906;50.812;7.132;2023-04-03T06:01:45;4.50;64.40
4107;DHT22;21906;50.812;7.132;2023-04-03T06:04:11;4.40;64.50
4107;DHT22;21906;50.812;7.132;2023-04-03T06:09:13;4.40;64.30
4107;DHT22;21906;50.812;7.132;2023-04-03T06:11:38;4.40;64.70
4107;DHT22;21906;50.812;7.132;2023-04-03T06:14:04;4.50;64.40
4107;DHT22;21906;50.812;7.132;2023-04-03T06:16:30;4.70;64.10
4107;DHT22;21906;50.812;7.132;2023-04-03T06:18:55;4.70;63.40
4107;DHT22;21906;50.812;7.132;2023-04-03T06:21:21;4.80;63.50
4107;DHT22;21906;50.812;7.132;2023-04-03T06:23:47;4.90;63.10
4107;DHT22;21906;50.812;7.132;2023-04-03T06:26:12;5.00;63.20
4107;DHT22;21906;50.812;7.132;2023-04-03T06:28:38;4.90;62.90
4107;DHT22;21906;50.812;7.132;2023-04-03T06:31:04;4.90;63.20
4107;DHT22;21906;50.812;7.132;2023-04-03T06:33:29;4.90;62.80
4107;DHT22;21906;50.812;7.132;2023-04-03T06:35:59;4.90;62.80
4107;DHT22;21906;50.812;7.132;2023-04-03T06:38:25;4.90;62.80
4107;DHT22;21906;50.812;7.132;2023-04-03T06:40:51;4.90;63.10
4107;DHT22;21906;50.812;7.132;2023-04-03T06:43:17;4.90;62.80
4107;DHT22;21906;50.812;7.132;2023-04-03T06:45:43;4.90;63.20
4107;DHT22;21906;50.812;7.132;2023-04-03T06:48:08;5.00;62.90
4107;DHT22;21906;50.812;7.132;2023-04-03T06:50:34;5.10;62.40
4107;DHT22;21906;50.812;7.132;2023-04-03T06:53:00;5.10;62.50
4107;DHT22;21906;50.812;7.132;2023-04-03T06:55:26;5.20;62.20
4107;DHT22;21906;50.812;7.132;2023-04-03T06:57:52;5.20;62.00
4107;DHT22;21906;50.812;7.132;2023-04-03T07:00:18;5.10;62.00
4107;DHT22;21906;50.812;7.132;2023-04-03T07:02:43;5.20;62.40
4107;DHT22;21906;50.812;7.132;2023-04-03T07:05:09;5.10;62.20
4107;DHT22;21906;50.812;7.132;2023-04-03T07:07:35;5.10;62.10
4107;DHT22;21906;50.812;7.132;2023-04-03T07:10:01;5.10;62.40
4107;DHT22;21906;50.812;7.132;2023-04-03T07:12:27;5.20;62.20
4107;DHT22;21906;50.812;7.132;2023-04-03T07:14:52;5.30;62.10
4107;DHT22;21906;50.812;7.132;2023-04-03T07:17:19;5.40;61.90
4107;DHT22;21906;50.812;7.132;2023-04-03T07:19:44;5.40;61.60
4107;DHT22;21906;50.812;7.132;2023-04-03T07:22:10;5.60;60.90
4107;DHT22;21906;50.812;7.132;2023-04-03T07:24:36;5.60;60.50
4107;DHT22;21906;50.812;7.132;2023-04-03T07:27:02;5.70;60.40
4107;DHT22;21906;50.812;7.132;2023-04-03T07:29:28;5.60;60.70
4107;DHT22;21906;50.812;7.132;2023-04-03T07:31:54;5.60;60.50
4107;DHT22;21906;50.812;7.132;2023-04-03T07:34:21;5.70;60.50
4107;DHT22;21906;50.812;7.132;2023-04-03T07:36:47;5.70;61.10
4107;DHT22;21906;50.812;7.132;2023-04-03T07:39:12;5.80;62.20
4107;DHT22;21906;50.812;7.132;2023-04-03T07:41:38;6.00;65.30
4107;DHT22;21906;50.812;7.132;2023-04-03T07:44:04;6.20;63.00
4107;DHT22;21906;50.812;7.132;2023-04-03T07:46:31;6.40;63.70
4107;DHT22;21906;50.812;7.132;2023-04-03T07:48:56;6.40;62.10
4107;DHT22;21906;50.812;7.132;2023-04-03T07:51:22;6.60;62.60
4107;DHT22;21906;50.812;7.132;2023-04-03T07:53:49;6.80;63.10
4107;DHT22;21906;50.812;7.132;2023-04-03T07:56:16;6.90;61.80
4107;DHT22;21906;50.812;7.132;2023-04-03T07:58:42;7.00;61.90
4107;DHT22;21906;50.812;7.132;2023-04-03T08:01:08;7.20;63.70
4107;DHT22;21906;50.812;7.132;2023-04-03T08:03:34;7.30;60.40
4107;DHT22;21906;50.812;7.132;2023-04-03T08:06:05;7.30;60.40
4107;DHT22;21906;50.812;7.132;2023-04-03T08:08:31;7.40;59.00
4107;DHT22;21906;50.812;7.132;2023-04-03T08:10:59;7.20;59.30
4107;DHT22;21906;50.812;7.132;2023-04-03T08:13:25;7.30;58.80
4107;DHT22;21906;50.812;7.132;2023-04-03T08:15:51;7.20;59.40
4107;DHT22;21906;50.812;7.132;2023-04-03T08:18:17;7.30;59.10
4107;DHT22;21906;50.812;7.132;2023-04-03T08:20:44;7.30;57.70
4107;DHT22;21906;50.812;7.132;2023-04-03T08:23:10;7.20;58.70
4107;DHT22;21906;50.812;7.132;2023-04-03T08:25:42;7.10;58.40
4107;DHT22;21906;50.812;7.132;2023-04-03T08:28:09;7.10;58.40
4107;DHT22;21906;50.812;7.132;2023-04-03T08:30:41;7.20;58.80
4107;DHT22;21906;50.812;7.132;2023-04-03T08:33:08;7.40;59.00
4107;DHT22;21906;50.812;7.132;2023-04-03T08:35:41;7.50;59.00
4107;DHT22;21906;50.812;7.132;2023-04-03T08:38:08;7.60;57.90
4107;DHT22;21906;50.812;7.132;2023-04-03T08:40:34;7.60;57.40
4107;DHT22;21906;50.812;7.132;2023-04-03T08:45:53;7.60;56.30
4107;DHT22;21906;50.812;7.132;2023-04-03T08:48:26;7.60;53.80
4107;DHT22;21906;50.812;7.132;2023-04-03T08:50:57;7.60;53.30
4107;DHT22;21906;50.812;7.132;2023-04-03T08:53:29;7.50;55.30
4107;DHT22;21906;50.812;7.132;2023-04-03T08:55:58;7.50;54.40
4107;DHT22;21906;50.812;7.132;2023-04-03T08:58:33;7.60;54.70
4107;DHT22;21906;50.812;7.132;2023-04-03T09:01:05;7.60;55.80
4107;DHT22;21906;50.812;7.132;2023-04-03T09:03:34;7.70;55.10
4107;DHT22;21906;50.812;7.132;2023-04-03T09:08:45;7.90;56.80
4107;DHT22;21906;50.812;7.132;2023-04-03T09:14:02;8.10;52.40
4107;DHT22;21906;50.812;7.132;2023-04-03T09:21:52;8.40;51.10
4107;DHT22;21906;50.812;7.132;2023-04-03T09:24:18;8.50;53.00
4107;DHT22;21906;50.812;7.132;2023-04-03T09:26:53;8.60;53.10
4107;DHT22;21906;50.812;7.132;2023-04-03T09:29:22;8.50;52.00
4107;DHT22;21906;50.812;7.132;2023-04-03T09:31:53;8.50;48.90
4107;DHT22;21906;50.812;7.132;2023-04-03T09:34:35;8.50;51.50
4107;DHT22;21906;50.812;7.132;2023-04-03T09:37:03;8.50;49.20
4107;DHT22;21906;50.812;7.132;2023-04-03T09:39:33;8.40;51.00
4107;DHT22;21906;50.812;7.132;2023-04-03T09:42:22;8.40;50.70
4107;DHT22;21906;50.812;7.132;2023-04-03T09:44:57;8.70;49.30
4107;DHT22;21906;50.812;7.132;2023-04-03T09:47:35;8.70;48.10
4107;DHT22;21906;50.812;7.132;2023-04-03T09:52:42;9.00;47.80
4107;DHT22;21906;50.812;7.132;2023-04-03T09:55:41;9.10;46.60
4107;DHT22;21906;50.812;7.132;2023-04-03T09:58:05;9.10;47.60
4107;DHT22;21906;50.812;7.132;2023-04-03T10:00:54;9.20;48.60
4107;DHT22;21906;50.812;7.132;2023-04-03T10:03:29;9.30;45.20
4107;DHT22;21906;50.812;7.132;2023-04-03T10:05:55;9.40;48.10
4107;DHT22;21906;50.812;7.132;2023-04-03T10:08:26;9.20;45.60
4107;DHT22;21906;50.812;7.132;2023-04-03T10:11:14;9.30;46.20
4107;DHT22;21906;50.812;7.132;2023-04-03T10:14:02;9.40;43.10
4107;DHT22;21906;50.812;7.132;2023-04-03T10:16:41;9.50;42.80
4107;DHT22;21906;50.812;7.132;2023-04-03T10:24:48;9.50;44.00
4107;DHT22;21906;50.812;7.132;2023-04-03T10:27:18;9.60;42.40
4107;DHT22;21906;50.812;7.132;2023-04-03T10:32:51;9.60;42.00
4107;DHT22;21906;50.812;7.132;2023-04-03T10:51:01;10.20;40.90
4107;DHT22;21906;50.812;7.132;2023-04-03T10:53:24;10.30;41.10
4107;DHT22;21906;50.812;7.132;2023-04-03T10:56:15;10.30;41.50
4107;DHT22;21906;50.812;7.132;2023-04-03T10:58:45;10.40;41.90
4107;DHT22;21906;50.812;7.132;2023-04-03T11:01:26;10.60;44.10
4107;DHT22;21906;50.812;7.132;2023-04-03T11:03:57;10.90;42.90
4107;DHT22;21906;50.812;7.132;2023-04-03T11:06:27;10.80;42.10
4107;DHT22;21906;50.812;7.132;2023-04-03T11:09:00;10.70;42.50
4107;DHT22;21906;50.812;7.132;2023-04-03T11:11:34;10.60;41.10
4107;DHT22;21906;50.812;7.132;2023-04-03T11:16:51;10.80;41.40
4107;DHT22;21906;50.812;7.132;2023-04-03T11:19:43;10.90;42.60
4107;DHT22;21906;50.812;7.132;2023-04-03T11:36:32;11.50;40.30
4107;DHT22;21906;50.812;7.132;2023-04-03T11:39:16;11.40;39.80
4107;DHT22;21906;50.812;7.132;2023-04-03T11:41:44;11.50;40.60
4107;DHT22;21906;50.812;7.132;2023-04-03T11:44:40;11.50;41.30
4107;DHT22;21906;50.812;7.132;2023-04-03T11:47:12;11.60;38.00
4107;DHT22;21906;50.812;7.132;2023-04-03T11:50:00;11.40;39.60
4107;DHT22;21906;50.812;7.132;2023-04-03T11:58:13;11.60;37.40
4107;DHT22;21906;50.812;7.132;2023-04-03T12:18:55;12.30;38.60
4107;DHT22;21906;50.812;7.132;2023-04-03T12:22:04;12.20;36.90
4107;DHT22;21906;50.812;7.132;2023-04-03T12:34:53;12.50;36.30
4107;DHT22;21906;50.812;7.132;2023-04-03T12:40:15;12.50;37.30
4107;DHT22;21906;50.812;7.132;2023-04-03T12:45:46;12.90;37.60
4107;DHT22;21906;50.812;7.132;2023-04-03T12:48:18;12.80;35.60
4107;DHT22;21906;50.812;7.132;2023-04-03T12:50:49;12.80;33.50
4107;DHT22;21906;50.812;7.132;2023-04-03T12:53:22;12.90;34.80
4107;DHT22;21906;50.812;7.132;2023-04-03T12:55:57;12.90;36.70
4107;DHT22;21906;50.812;7.132;2023-04-03T12:58:25;12.90;33.80
4107;DHT22;21906;50.812;7.132;2023-04-03T13:01:10;12.90;34.50
4107;DHT22;21906;50.812;7.132;2023-04-03T13:03:39;13.00;34.90
4107;DHT22;21906;50.812;7.132;2023-04-03T13:06:05;13.00;33.60
4107;DHT22;21906;50.812;7.132;2023-04-03T13:08:31;13.30;34.30
4107;DHT22;21906;50.812;7.132;2023-04-03T13:11:08;13.20;34.70
4107;DHT22;21906;50.812;7.132;2023-04-03T13:13:35;13.50;32.70
4107;DHT22;21906;50.812;7.132;2023-04-03T13:16:10;13.30;33.00
4107;DHT22;21906;50.812;7.132;2023-04-03T13:18:37;13.30;33.80
4107;DHT22;21906;50.812;7.132;2023-04-03T13:27:02;13.30;33.90
4107;DHT22;21906;50.812;7.132;2023-04-03T13:29:32;13.70;34.70
4107;DHT22;21906;50.812;7.132;2023-04-03T13:32:00;13.80;32.10
4107;DHT22;21906;50.812;7.132;2023-04-03T13:34:29;14.00;33.60
4107;DHT22;21906;50.812;7.132;2023-04-03T13:36:59;14.30;33.50
4107;DHT22;21906;50.812;7.132;2023-04-03T13:39:31;14.50;31.50
4107;DHT22;21906;50.812;7.132;2023-04-03T13:42:02;14.70;31.20
4107;DHT22;21906;50.812;7.132;2023-04-03T13:44:39;14.90;31.70
4107;DHT22;21906;50.812;7.132;2023-04-03T13:47:19;15.30;32.80
4107;DHT22;21906;50.812;7.132;2023-04-03T13:50:19;15.70;31.90
4107;DHT22;21906;50.812;7.132;2023-04-03T13:52:53;15.90;30.50
4107;DHT22;21906;50.812;7.132;2023-04-03T13:55:30;15.80;31.30
4107;DHT22;21906;50.812;7.132;2023-04-03T14:00:51;16.00;30.70
4107;DHT22;21906;50.812;7.132;2023-04-03T14:03:25;16.40;29.80
4107;DHT22;21906;50.812;7.132;2023-04-03T14:05:51;16.60;29.00
4107;DHT22;21906;50.812;7.132;2023-04-03T14:08:18;16.60;29.90
4107;DHT22;21906;50.812;7.132;2023-04-03T14:10:44;16.30;30.70
4107;DHT22;21906;50.812;7.132;2023-04-03T14:13:13;15.90;31.80
4107;DHT22;21906;50.812;7.132;2023-04-03T14:15:39;15.90;29.00
4107;DHT22;21906;50.812;7.132;2023-04-03T14:18:05;15.70;30.60
4107;DHT22;21906;50.812;7.132;2023-04-03T14:20:31;15.90;30.60
4107;DHT22;21906;50.812;7.132;2023-04-03T14:22:57;16.10;30.30
4107;DHT22;21906;50.812;7.132;2023-04-03T14:25:23;16.40;30.40
4107;DHT22;21906;50.812;7.132;2023-04-03T14:27:53;16.90;30.40
4107;DHT22;21906;50.812;7.132;2023-04-03T14:30:29;16.90;30.40
4107;DHT22;21906;50.812;7.132;2023-04-03T14:32:56;16.90;29.10
4107;DHT22;21906;50.812;7.132;2023-04-03T14:35:22;16.70;30.80
4107;DHT22;21906;50.812;7.132;2023-04-03T14:37:48;16.50;29.40
4107;DHT22;21906;50.812;7.132;2023-04-03T14:40:20;16.70;30.20
4107;DHT22;21906;50.812;7.132;2023-04-03T14:42:47;16.90;28.60
4107;DHT22;21906;50.812;7.132;2023-04-03T14:45:15;17.20;29.10
4107;DHT22;21906;50.812;7.132;2023-04-03T14:47:47;17.40;27.50
4107;DHT22;21906;50.812;7.132;2023-04-03T14:50:19;17.50;29.70
4107;DHT22;21906;50.812;7.132;2023-04-03T14:52:47;17.60;27.50
4107;DHT22;21906;50.812;7.132;2023-04-03T14:55:16;18.00;27.70
4107;DHT22;21906;50.812;7.132;2023-04-03T14:57:42;18.00;26.40
4107;DHT22;21906;50.812;7.132;2023-04-03T15:00:13;18.00;25.70
4107;DHT22;21906;50.812;7.132;2023-04-03T15:02:39;18.30;27.00
4107;DHT22;21906;50.812;7.132;2023-04-03T15:05:08;18.70;27.60
4107;DHT22;21906;50.812;7.132;2023-04-03T15:07:36;18.80;28.00
4107;DHT22;21906;50.812;7.132;2023-04-03T15:10:17;19.00;27.20
4107;DHT22;21906;50.812;7.132;2023-04-03T15:12:44;19.60;25.80
4107;DHT22;21906;50.812;7.132;2023-04-03T15:15:10;19.50;25.60
4107;DHT22;21906;50.812;7.132;2023-04-03T15:17:36;19.70;25.00
4107;DHT22;21906;50.812;7.132;2023-04-03T15:20:02;19.60;25.30
4107;DHT22;21906;50.812;7.132;2023-04-03T15:22:28;20.00;23.80
4107;DHT22;21906;50.812;7.132;2023-04-03T15:24:54;20.40;24.20
4107;DHT22;21906;50.812;7.132;2023-04-03T15:27:19;20.20;24.80
4107;DHT22;21906;50.812;7.132;2023-04-03T15:29:45;20.30;25.10
4107;DHT22;21906;50.812;7.132;2023-04-03T15:32:12;20.60;24.10
4107;DHT22;21906;50.812;7.132;2023-04-03T15:34:38;21.00;23.30
4107;DHT22;21906;50.812;7.132;2023-04-03T15:37:04;20.90;23.00
4107;DHT22;21906;50.812;7.132;2023-04-03T15:39:31;21.00;25.40
4107;DHT22;21906;50.812;7.132;2023-04-03T15:41:57;21.50;23.10
4107;DHT22;21906;50.812;7.132;2023-04-03T15:44:25;21.90;23.00
4107;DHT22;21906;50.812;7.132;2023-04-03T15:46:50;21.80;22.70
4107;DHT22;21906;50.812;7.132;2023-04-03T15:49:19;21.80;22.70
4107;DHT22;21906;50.812;7.132;2023-04-03T15:51:46;22.40;21.80
4107;DHT22;21906;50.812;7.132;2023-04-03T15:54:12;22.70;21.50
4107;DHT22;21906;50.812;7.132;2023-04-03T15:56:38;23.40;20.60
4107;DHT22;21906;50.812;7.132;2023-04-03T15:59:04;23.60;20.70
4107;DHT22;21906;50.812;7.132;2023-04-03T16:01:29;22.90;20.80
4107;DHT22;21906;50.812;7.132;2023-04-03T16:03:55;22.90;20.70
4107;DHT22;21906;50.812;7.132;2023-04-03T16:06:21;24.00;19.90
4107;DHT22;21906;50.812;7.132;2023-04-03T16:08:49;24.90;19.70
4107;DHT22;21906;50.812;7.132;2023-04-03T16:11:15;25.00;19.20
4107;DHT22;21906;50.812;7.132;2023-04-03T16:13:40;24.40;19.40
4107;DHT22;21906;50.812;7.132;2023-04-03T16:16:06;24.80;19.10
4107;DHT22;21906;50.812;7.132;2023-04-03T16:18:34;24.60;18.30
4107;DHT22;21906;50.812;7.132;2023-04-03T16:21:00;24.50;19.50
4107;DHT22;21906;50.812;7.132;2023-04-03T16:23:26;24.90;19.10
4107;DHT22;21906;50.812;7.132;2023-04-03T16:25:52;25.50;19.60
4107;DHT22;21906;50.812;7.132;2023-04-03T16:28:17;26.40;18.30
4107;DHT22;21906;50.812;7.132;2023-04-03T16:30:44;26.30;17.30
4107;DHT22;21906;50.812;7.132;2023-04-03T16:33:12;26.10;18.30
4107;DHT22;21906;50.812;7.132;2023-04-03T16:35:38;26.60;17.50
4107;DHT22;21906;50.812;7.132;2023-04-03T16:38:04;26.60;17.30
4107;DHT22;21906;50.812;7.132;2023-04-03T16:40:30;27.00;16.50
4107;DHT22;21906;50.812;7.132;2023-04-03T16:42:56;26.30;18.00
4107;DHT22;21906;50.812;7.132;2023-04-03T16:45:22;26.20;17.60
4107;DHT22;21906;50.812;7.132;2023-04-03T16:47:48;26.70;17.40
4107;DHT22;21906;50.812;7.132;2023-04-03T16:50:13;27.20;17.10
4107;DHT22;21906;50.812;7.132;2023-04-03T16:52:39;27.70;16.70
4107;DHT22;21906;50.812;7.132;2023-04-03T16:55:05;27.40;16.60
4107;DHT22;21906;50.812;7.132;2023-04-03T16:57:31;26.30;16.80
4107;DHT22;21906;50.812;7.132;2023-04-03T16:59:57;25.90;18.00
4107;DHT22;21906;50.812;7.132;2023-04-03T17:02:23;25.80;18.00
4107;DHT22;21906;50.812;7.132;2023-04-03T17:04:53;26.10;17.90
4107;DHT22;21906;50.812;7.132;2023-04-03T17:07:23;26.30;17.00
4107;DHT22;21906;50.812;7.132;2023-04-03T17:09:49;26.00;17.50
4107;DHT22;21906;50.812;7.132;2023-04-03T17:12:15;25.00;18.10
4107;DHT22;21906;50.812;7.132;2023-04-03T17:14:41;25.60;17.70
4107;DHT22;21906;50.812;7.132;2023-04-03T17:17:07;25.70;16.90
4107;DHT22;21906;50.812;7.132;2023-04-03T17:19:34;24.90;18.20
4107;DHT22;21906;50.812;7.132;2023-04-03T17:22:00;23.70;18.80
4107;DHT22;21906;50.812;7.132;2023-04-03T17:24:27;22.20;20.10
4107;DHT22;21906;50.812;7.132;2023-04-03T17:26:52;20.50;21.60
4107;DHT22;21906;50.812;7.132;2023-04-03T17:29:18;19.20;22.80
4107;DHT22;21906;50.812;7.132;2023-04-03T17:31:44;17.70;24.10
4107;DHT22;21906;50.812;7.132;2023-04-03T17:34:10;16.80;25.10
4107;DHT22;21906;50.812;7.132;2023-04-03T17:36:37;16.00;26.10
4107;DHT22;21906;50.812;7.132;2023-04-03T17:39:04;15.30;27.10
4107;DHT22;21906;50.812;7.132;2023-04-03T17:41:30;14.60;28.20
4107;DHT22;21906;50.812;7.132;2023-04-03T17:43:56;14.10;28.80
4107;DHT22;21906;50.812;7.132;2023-04-03T17:46:23;13.40;30.00
4107;DHT22;21906;50.812;7.132;2023-04-03T17:48:49;12.70;31.20
4107;DHT22;21906;50.812;7.132;2023-04-03T17:51:20;12.40;31.40
4107;DHT22;21906;50.812;7.132;2023-04-03T17:53:47;12.10;32.20
4107;DHT22;21906;50.812;7.132;2023-04-03T17:56:15;11.80;32.80